International Virtual Aviation Organisation

Russian Federation and Kazakhstan MCD

 

Карточка аэропорта ULMM

Внимание!
Информация на этой странице в стадии наполнения.
Если вы не увидели какой-то информации, или заметили неточность - пожалуйста сообщите нам!
Спасибо!
Команда RU-STAFF
Название аэропортаМурманск
Название аэропорта (англ.)Murmansk
Превышение262 ft. (79.9 m.)
Координаты68°46.902', 32°45.066'
Высота перехода900m
Эшелон переходаQFE>=753mm:FL050; QFE<753=>727:FL060; QFE<727:FL070
Коды ответчика3101-3117
Зона ОрВДМурманск РПИ (ULMM)
Данные METARULMM 131100Z 17003MPS 5000 -SHSN BKN016CB BKN046 M01/M02 Q0996 R13/690138 NOSIG RMK QFE741
Проноз погоды (TAF)ULMM 130755Z 1309/1409 18003G09MPS 3100 -SHSN BR BKN011CB TEMPO 1309/1315 23003G09MPS 0500 -SHSN FZFG BKN002 BKN011CB BECMG 1315/1317 9999 NSW BKN011 TEMPO 1317/1403 23003MPS 3100 -SHSN BR BKN011CB TEMPO 1403/1409 23003MPS 3100 -SHSN BR BKN006 BKN011CB
NOTAMshow/hide NOTAM
AWOS   TABLE

Информация о ВПП

ВПП Длина ВПП (м.) Покрытие Курс ВПП Частота ILS
132500Асфальтобетон131110.3
312500Асфальтобетон311108.5

Диспетчерские позиции




Спутниковое изображение